Decoded Metar for PAWI (WAINWRIGHT in AK, USA) (IATA:AWI) | Meteo·Mobile Aviation Weather
aviador You're here:

PAWI Decoded Metar

WAINWRIGHT in AK, USA
Report Time2019-01-20 10:53:00
UTC Time2019-01-20 11:18:39
Flight Rules vfr VFR
Wind280° at 14 kt
W.Decomp.*RWY 23: 11.7 kt HW 7.6 kt RCW
W.Rank280° ranks 24
Current wind is above 280° avg. (9.3)
Visibility9999 m
Phenomena:N/A
Clouds:Overcast 085 Hf
Expected CloudBase > 1,600 ft AGL from Temp-Dew spread
Ceiling8,500 ft
Temp-20°C (ISA -35)
Dew Point-24°C (71% RH)
AAT-28.7°C
QNH1017 hPa
Density Alt-4,498 ft
Elevation89 ft
Report Wrong Elevation
Raw Report
PAWI 201053Z AUTO 28014KT 7SM OVC085 M20/M24 A3002 RMK AO2 UPE07
SLP166 P0000 T12001239 TSNO=

Extra information for PAWI:More info

Metar Taf Metar & Taf Last 4 Metars F.Rules Stats Wind Profile Meteogram Temp Stats Airport Information Weather charts Add Link Nearby VenuesMetar ALERT Operation Metar Decoded Social comments

AIRNAV info for PAWI